Time;durP1;ratioP1;P1;durP2;ratioP2;P2;SDS_P1;SDS_P2;PMS_P1;PMS_P2;Temp;Humidity;BMP_temperature;BMP_pressure;BME280_temperature;BME280_humidity;BME280_pressure;Samples;Min_cycle;Max_cycle;Signal;HPM_P1;HPM_P2
2023/12/16 00:00:59;;;;;;;13.23;2.80;;;6.80;90.50;;;;;;5088883;28;20512;-83
2023/12/16 00:03:26;;;;;;;7.45;3.00;;;6.80;90.90;;;;;;5055087;28;20079;-78
2023/12/16 00:05:53;;;;;;;11.02;3.95;;;6.80;91.10;;;;;;5071747;28;20127;-80
2023/12/16 00:08:19;;;;;;;10.02;2.58;;;6.80;91.10;;;;;;5044082;28;20404;-78
2023/12/16 00:10:45;;;;;;;8.30;2.85;;;6.70;90.40;;;;;;5058392;28;20040;-80
2023/12/16 00:13:10;;;;;;;8.88;3.38;;;6.70;90.30;;;;;;5053752;28;20035;-80
2023/12/16 00:15:36;;;;;;;9.48;2.90;;;6.70;90.70;;;;;;5038377;28;20033;-78
2023/12/16 00:18:02;;;;;;;10.18;3.28;;;6.70;91.00;;;;;;5021753;28;20037;-81
2023/12/16 00:20:28;;;;;;;9.02;2.65;;;6.60;90.70;;;;;;5038102;28;20040;-79
2023/12/16 00:22:54;;;;;;;7.68;3.30;;;6.60;90.90;;;;;;5088230;28;20044;-79
2023/12/16 00:25:19;;;;;;;11.38;2.83;;;6.60;91.30;;;;;;5038333;28;20120;-78
2023/12/16 00:27:45;;;;;;;13.05;3.00;;;6.60;91.00;;;;;;5048186;28;20028;-78
2023/12/16 00:30:11;;;;;;;13.40;2.95;;;6.50;91.10;;;;;;5063387;28;20037;-81
2023/12/16 00:32:39;;;;;;;11.88;2.83;;;6.50;91.30;;;;;;5054699;28;20094;-79
2023/12/16 00:35:08;;;;;;;7.78;2.17;;;6.50;91.20;;;;;;5054602;28;20041;-79
2023/12/16 00:37:35;;;;;;;8.45;2.88;;;6.40;91.10;;;;;;5088389;28;20045;-80
2023/12/16 00:40:01;;;;;;;6.22;2.78;;;6.40;91.30;;;;;;5071156;28;20044;-81
2023/12/16 00:42:27;;;;;;;11.68;2.65;;;6.30;91.30;;;;;;5054150;28;20049;-78
2023/12/16 00:44:53;;;;;;;9.63;2.70;;;6.30;91.20;;;;;;5048642;28;20037;-79
2023/12/16 00:47:19;;;;;;;11.57;2.55;;;6.30;91.20;;;;;;5057694;28;20040;-78
2023/12/16 00:49:45;;;;;;;7.40;2.78;;;6.20;91.30;;;;;;5074456;28;20028;-78
2023/12/16 00:52:10;;;;;;;12.18;3.15;;;6.20;91.40;;;;;;5054550;28;20044;-80
2023/12/16 00:54:36;;;;;;;13.50;3.17;;;6.20;91.50;;;;;;5074138;28;20428;-78
2023/12/16 00:57:02;;;;;;;8.77;2.22;;;6.20;91.40;;;;;;5074155;28;20047;-80
2023/12/16 00:59:28;;;;;;;6.85;2.30;;;6.10;91.30;;;;;;5041196;28;20130;-81
2023/12/16 01:01:54;;;;;;;7.50;2.20;;;6.20;91.40;;;;;;5073880;28;20045;-77
2023/12/16 01:04:19;;;;;;;12.35;3.35;;;6.30;91.20;;;;;;5057585;28;20040;-79
2023/12/16 01:06:45;;;;;;;10.35;2.75;;;6.20;91.10;;;;;;5057295;28;20033;-80
2023/12/16 01:09:10;;;;;;;9.18;1.95;;;6.10;91.10;;;;;;5072690;28;20087;-80
2023/12/16 01:11:36;;;;;;;6.72;2.38;;;6.20;91.20;;;;;;5074084;28;20052;-82
2023/12/16 01:14:02;;;;;;;17.23;2.72;;;6.20;91.00;;;;;;5057518;28;20469;-79
2023/12/16 01:16:28;;;;;;;7.05;1.85;;;6.20;91.20;;;;;;5057111;28;20469;-79
2023/12/16 01:18:54;;;;;;;13.50;2.30;;;6.10;91.00;;;;;;5057002;28;20044;-80
2023/12/16 01:21:20;;;;;;;8.10;2.60;;;6.20;91.30;;;;;;5040314;28;20044;-79
2023/12/16 01:23:46;;;;;;;10.32;2.85;;;6.10;91.10;;;;;;5040583;28;20059;-82
2023/12/16 01:26:12;;;;;;;7.68;2.30;;;6.10;91.10;;;;;;5055942;28;20527;-80
2023/12/16 01:28:40;;;;;;;6.70;2.45;;;6.10;90.90;;;;;;5040407;28;20184;-80
2023/12/16 01:31:06;;;;;;;10.35;2.30;;;6.10;91.10;;;;;;5040216;28;20078;-78
2023/12/16 01:33:32;;;;;;;9.85;2.67;;;6.10;90.70;;;;;;5056816;28;20047;-81
2023/12/16 01:35:58;;;;;;;15.23;3.88;;;6.10;91.00;;;;;;5073369;28;20037;-79
2023/12/16 01:38:23;;;;;;;11.70;3.92;;;6.10;91.10;;;;;;5057039;28;20131;-82
2023/12/16 01:40:49;;;;;;;12.52;3.15;;;6.10;91.20;;;;;;5106806;28;20123;-81
2023/12/16 01:43:15;;;;;;;13.50;3.50;;;6.00;91.20;;;;;;5055374;28;20080;-80
2023/12/16 01:45:41;;;;;;;11.90;2.25;;;6.00;91.20;;;;;;5073180;28;20044;-79
2023/12/16 01:48:07;;;;;;;8.15;1.90;;;5.90;91.40;;;;;;5073239;28;20036;-81
2023/12/16 01:50:33;;;;;;;13.73;2.75;;;5.90;91.40;;;;;;5056591;28;20393;-79
2023/12/16 01:53:00;;;;;;;10.43;2.83;;;5.90;91.70;;;;;;5054382;28;20044;-81
2023/12/16 01:55:27;;;;;;;9.50;2.83;;;5.80;91.70;;;;;;5056628;28;20080;-79
2023/12/16 01:57:55;;;;;;;11.30;3.15;;;5.80;91.90;;;;;;5106917;28;20522;-80
2023/12/16 02:00:21;;;;;;;12.65;3.10;;;5.80;92.00;;;;;;5056239;28;20056;-78
2023/12/16 02:02:48;;;;;;;11.02;3.60;;;5.80;92.00;;;;;;5056112;28;20032;-80
2023/12/16 02:05:13;;;;;;;14.70;3.60;;;5.90;91.80;;;;;;5055355;28;20118;-80
2023/12/16 02:07:39;;;;;;;10.10;3.10;;;5.90;91.70;;;;;;5072785;28;20638;-79
2023/12/16 02:10:05;;;;;;;11.90;2.95;;;6.00;91.50;;;;;;5071214;28;20064;-80
2023/12/16 02:12:34;;;;;;;14.43;3.38;;;6.00;91.70;;;;;;5072641;28;20041;-80
2023/12/16 02:15:00;;;;;;;11.32;3.33;;;5.90;92.00;;;;;;5056060;28;20044;-78
2023/12/16 02:17:26;;;;;;;8.52;2.70;;;5.90;91.90;;;;;;5072567;28;20079;-80
2023/12/16 02:19:53;;;;;;;12.13;2.45;;;5.90;92.00;;;;;;5072589;28;20087;-80
2023/12/16 02:22:20;;;;;;;11.82;2.40;;;5.90;92.00;;;;;;5056018;28;20059;-81
2023/12/16 02:24:47;;;;;;;9.45;3.70;;;5.90;91.80;;;;;;5072533;28;20587;-78
2023/12/16 02:27:13;;;;;;;6.55;2.70;;;5.90;92.00;;;;;;5055770;28;20085;-81
2023/12/16 02:29:38;;;;;;;12.15;3.80;;;5.80;92.30;;;;;;5070970;28;20042;-82
2023/12/16 02:32:06;;;;;;;12.32;3.00;;;5.80;92.50;;;;;;5072168;28;20071;-79
2023/12/16 02:34:32;;;;;;;11.98;2.88;;;5.80;92.60;;;;;;5055769;28;20392;-81
2023/12/16 02:36:59;;;;;;;10.85;2.55;;;5.90;92.70;;;;;;5038896;28;20041;-79
2023/12/16 02:39:24;;;;;;;15.18;2.78;;;5.80;92.90;;;;;;5072175;28;20110;-81
2023/12/16 02:41:50;;;;;;;10.40;2.80;;;5.90;92.80;;;;;;5071799;28;20064;-79
2023/12/16 02:44:16;;;;;;;13.85;3.65;;;5.80;93.10;;;;;;5051116;28;20131;-78
2023/12/16 02:46:41;;;;;;;13.77;3.30;;;5.90;92.80;;;;;;5035437;28;20067;-80
2023/12/16 02:49:07;;;;;;;17.85;3.20;;;5.90;93.10;;;;;;5035718;28;20041;-79
2023/12/16 02:51:33;;;;;;;15.57;4.18;;;5.90;92.90;;;;;;5035372;28;20489;-83
2023/12/16 02:53:58;;;;;;;11.80;3.65;;;5.80;93.20;;;;;;5038772;28;20047;-79
2023/12/16 02:56:24;;;;;;;13.98;2.70;;;5.90;93.10;;;;;;5055286;28;20044;-82
2023/12/16 02:58:50;;;;;;;19.30;3.78;;;5.90;93.40;;;;;;5071932;28;20044;-78
2023/12/16 03:01:16;;;;;;;16.88;3.45;;;5.90;93.50;;;;;;5038648;28;20051;-80
2023/12/16 03:03:42;;;;;;;24.40;4.10;;;5.90;93.90;;;;;;5055275;28;20119;-80
2023/12/16 03:06:08;;;;;;;16.08;3.83;;;6.00;93.80;;;;;;5055610;28;20128;-80
2023/12/16 03:08:38;;;;;;;13.20;3.42;;;6.00;94.00;;;;;;5055055;28;20036;-81
2023/12/16 03:11:04;;;;;;;14.43;3.47;;;6.00;93.80;;;;;;5070117;28;20047;-79
2023/12/16 03:13:31;;;;;;;14.48;3.33;;;6.00;94.30;;;;;;5055364;28;20041;-79
2023/12/16 03:15:57;;;;;;;18.10;3.80;;;6.00;94.20;;;;;;5071770;28;20513;-80
2023/12/16 03:18:22;;;;;;;16.25;4.40;;;6.00;94.40;;;;;;5038603;28;20097;-79
2023/12/16 03:20:49;;;;;;;20.70;4.75;;;6.00;94.50;;;;;;5071532;28;20128;-79
2023/12/16 03:23:15;;;;;;;19.23;4.35;;;6.00;94.30;;;;;;5038372;28;20033;-81
2023/12/16 03:25:44;;;;;;;20.45;4.63;;;6.00;94.40;;;;;;5071674;28;20055;-80
2023/12/16 03:28:11;;;;;;;17.95;3.78;;;6.00;94.30;;;;;;5053817;28;20033;-80
2023/12/16 03:30:39;;;;;;;12.32;3.10;;;6.10;94.40;;;;;;5071558;28;20190;-81
2023/12/16 03:33:05;;;;;;;23.45;4.47;;;6.10;94.20;;;;;;5054715;28;20044;-80
2023/12/16 03:35:31;;;;;;;18.05;3.50;;;6.10;94.20;;;;;;5054775;28;20063;-80
2023/12/16 03:37:57;;;;;;;18.15;3.30;;;6.10;94.20;;;;;;5071693;28;20044;-81
2023/12/16 03:40:23;;;;;;;15.90;3.30;;;6.10;94.10;;;;;;5055021;28;20131;-79
2023/12/16 03:42:49;;;;;;;18.95;4.28;;;6.10;94.40;;;;;;5054683;28;20092;-80
2023/12/16 03:45:14;;;;;;;13.23;4.85;;;6.10;94.60;;;;;;5071399;28;20122;-81
2023/12/16 03:47:40;;;;;;;14.68;3.95;;;6.20;94.30;;;;;;5070174;28;20041;-81
2023/12/16 03:50:06;;;;;;;17.20;3.50;;;6.10;94.50;;;;;;5054680;28;20442;-79
2023/12/16 03:52:32;;;;;;;18.92;3.83;;;6.10;94.60;;;;;;5037980;28;20041;-79
2023/12/16 03:54:57;;;;;;;13.63;3.50;;;6.10;94.50;;;;;;5033517;28;20124;-81
2023/12/16 03:57:23;;;;;;;21.20;3.78;;;6.10;94.60;;;;;;5051528;28;20040;-82
2023/12/16 03:59:49;;;;;;;24.33;4.57;;;6.10;94.80;;;;;;5051297;28;20037;-78
2023/12/16 04:02:14;;;;;;;17.17;4.35;;;6.20;94.70;;;;;;5050899;28;20045;-79
2023/12/16 04:04:41;;;;;;;20.17;4.07;;;6.20;94.90;;;;;;5067928;28;20196;-79
2023/12/16 04:07:07;;;;;;;16.52;3.67;;;6.20;95.30;;;;;;5051156;28;20127;-79
2023/12/16 04:09:33;;;;;;;18.45;4.63;;;6.20;94.80;;;;;;5051116;28;20091;-80
2023/12/16 04:11:59;;;;;;;16.88;4.30;;;6.20;94.70;;;;;;5037614;28;20045;-80
2023/12/16 04:14:25;;;;;;;20.73;3.58;;;6.10;94.90;;;;;;5051098;28;20550;-79
2023/12/16 04:16:51;;;;;;;20.85;4.35;;;6.10;95.20;;;;;;5067747;28;20051;-80
2023/12/16 04:19:17;;;;;;;18.38;4.25;;;6.10;95.10;;;;;;5051343;28;20044;-81
2023/12/16 04:21:42;;;;;;;15.73;5.03;;;6.10;95.00;;;;;;5050994;28;20037;-81
2023/12/16 04:24:08;;;;;;;16.70;4.28;;;6.10;95.10;;;;;;5067912;28;20083;-80
2023/12/16 04:26:39;;;;;;;23.83;5.32;;;6.00;95.20;;;;;;5067887;28;20045;-80
2023/12/16 04:29:05;;;;;;;13.77;3.65;;;6.00;95.50;;;;;;5068151;28;20041;-80
2023/12/16 04:31:31;;;;;;;22.25;5.63;;;6.00;95.40;;;;;;5021363;28;20111;-80
2023/12/16 04:33:56;;;;;;;23.77;4.50;;;6.00;95.60;;;;;;5038066;28;20080;-81
2023/12/16 04:36:23;;;;;;;22.67;5.18;;;6.00;95.70;;;;;;5054542;28;20037;-80
2023/12/16 04:38:49;;;;;;;15.07;4.78;;;6.00;95.50;;;;;;5038035;28;20073;-81
2023/12/16 04:41:14;;;;;;;19.08;3.83;;;5.90;95.90;;;;;;5021013;28;20092;-78
2023/12/16 04:43:41;;;;;;;24.02;5.15;;;5.90;95.70;;;;;;5071179;28;20316;-81
2023/12/16 04:46:07;;;;;;;19.48;5.32;;;5.90;96.00;;;;;;5051302;28;20099;-79
2023/12/16 04:48:33;;;;;;;17.02;4.45;;;5.90;95.80;;;;;;5108484;28;20119;-80
2023/12/16 04:51:06;;;;;;;17.23;5.07;;;5.90;95.80;;;;;;5074410;28;20076;-80
2023/12/16 04:53:34;;;;;;;23.90;5.70;;;5.90;95.80;;;;;;5074136;28;20055;-80
2023/12/16 04:56:01;;;;;;;12.73;4.18;;;5.90;95.80;;;;;;5070608;28;20059;-78
2023/12/16 04:58:27;;;;;;;20.50;4.85;;;5.90;95.90;;;;;;5074044;28;20039;-80
2023/12/16 05:00:52;;;;;;;22.80;5.22;;;5.90;96.00;;;;;;5057235;28;20037;-79
2023/12/16 05:03:18;;;;;;;18.58;5.22;;;5.90;96.20;;;;;;5074097;28;20040;-81
2023/12/16 05:05:44;;;;;;;22.00;5.53;;;5.90;96.50;;;;;;5057595;28;20124;-81
2023/12/16 05:08:11;;;;;;;24.80;5.35;;;6.00;96.60;;;;;;5057276;28;20033;-80
2023/12/16 05:10:37;;;;;;;16.08;5.00;;;6.00;96.30;;;;;;5057554;28;20388;-81
2023/12/16 05:13:02;;;;;;;17.38;6.65;;;6.10;96.30;;;;;;5036155;28;20037;-80
2023/12/16 05:15:28;;;;;;;14.68;5.18;;;6.10;96.00;;;;;;5037549;28;20049;-81
2023/12/16 05:17:54;;;;;;;22.70;5.10;;;6.10;96.30;;;;;;5054010;28;20052;-82
2023/12/16 05:20:19;;;;;;;19.63;5.95;;;6.10;96.00;;;;;;5037147;28;20412;-81
2023/12/16 05:22:45;;;;;;;19.33;6.18;;;6.10;96.00;;;;;;5053665;28;20045;-79
2023/12/16 05:25:11;;;;;;;23.50;6.70;;;6.10;96.10;;;;;;5053508;28;20037;-77
2023/12/16 05:27:37;;;;;;;26.58;6.63;;;6.10;96.40;;;;;;5087383;28;20044;-79
2023/12/16 05:30:03;;;;;;;25.75;6.65;;;6.10;96.40;;;;;;5042930;28;20523;-81
2023/12/16 05:32:29;;;;;;;24.98;6.82;;;6.20;96.60;;;;;;5056888;28;20076;-82
2023/12/16 05:34:55;;;;;;;25.05;8.00;;;6.20;96.70;;;;;;5040518;28;20054;-81
2023/12/16 05:37:21;;;;;;;24.20;6.78;;;6.20;96.70;;;;;;5056718;28;20040;-80
2023/12/16 05:39:47;;;;;;;32.20;7.35;;;6.30;96.40;;;;;;5056778;28;20037;-81
2023/12/16 05:42:13;;;;;;;22.10;6.75;;;6.30;96.40;;;;;;5072912;28;20045;-80
2023/12/16 05:44:39;;;;;;;28.20;7.00;;;6.30;96.50;;;;;;5056755;28;20046;-79
2023/12/16 05:47:07;;;;;;;19.38;6.88;;;6.30;96.60;;;;;;5067590;28;20044;-80
2023/12/16 05:49:32;;;;;;;23.58;8.55;;;6.40;96.80;;;;;;5036706;28;20099;-81
2023/12/16 05:51:58;;;;;;;33.70;8.57;;;6.40;96.60;;;;;;5053338;28;20088;-80
2023/12/16 05:54:24;;;;;;;24.85;7.75;;;6.50;96.70;;;;;;5036535;28;20040;-81
2023/12/16 05:56:50;;;;;;;25.83;7.78;;;6.40;96.90;;;;;;5072342;28;20485;-79
2023/12/16 05:59:16;;;;;;;26.88;9.07;;;6.40;97.00;;;;;;5072152;28;20040;-78
2023/12/16 06:01:41;;;;;;;33.55;8.73;;;6.50;96.90;;;;;;5056243;28;20045;-80
2023/12/16 06:04:07;;;;;;;34.50;8.82;;;6.50;96.70;;;;;;5056126;28;20036;-82
2023/12/16 06:06:33;;;;;;;30.20;7.80;;;6.60;97.00;;;;;;5056573;28;20052;-79
2023/12/16 06:08:58;;;;;;;31.27;8.90;;;6.60;97.00;;;;;;5072762;28;20485;-81
2023/12/16 06:11:24;;;;;;;34.45;8.90;;;6.70;97.50;;;;;;5056130;28;20401;-79
2023/12/16 06:13:50;;;;;;;31.25;9.80;;;6.80;97.20;;;;;;5056075;28;20076;-82
2023/12/16 06:16:16;;;;;;;30.35;8.45;;;6.80;97.00;;;;;;5054771;28;20107;-79
2023/12/16 06:18:46;;;;;;;32.72;8.30;;;7.00;96.80;;;;;;5072496;28;20481;-82
2023/12/16 06:21:12;;;;;;;28.70;8.85;;;7.00;97.00;;;;;;5056204;28;20040;-79
2023/12/16 06:23:38;;;;;;;35.38;9.40;;;7.00;97.00;;;;;;5039141;28;20036;-81
2023/12/16 06:26:03;;;;;;;34.15;9.55;;;7.00;97.20;;;;;;5055637;28;20041;-82
2023/12/16 06:28:29;;;;;;;29.35;9.20;;;7.10;97.40;;;;;;5056037;28;20033;-80
2023/12/16 06:30:55;;;;;;;40.97;8.75;;;7.10;97.30;;;;;;5043928;28;20098;-81
2023/12/16 06:33:22;;;;;;;33.50;8.35;;;7.10;97.30;;;;;;5085939;28;20477;-81
2023/12/16 06:35:49;;;;;;;32.95;8.77;;;7.10;97.20;;;;;;5035703;28;20037;-81
2023/12/16 06:38:15;;;;;;;39.10;8.63;;;7.20;97.10;;;;;;5035650;28;20036;-81
2023/12/16 06:40:40;;;;;;;31.73;8.80;;;7.10;97.20;;;;;;5052108;28;20405;-79
2023/12/16 06:43:06;;;;;;;37.40;9.07;;;7.20;97.70;;;;;;5051946;28;20045;-80
2023/12/16 06:45:33;;;;;;;39.25;9.80;;;7.20;97.30;;;;;;5057022;28;20040;-81
2023/12/16 06:47:59;;;;;;;41.70;9.52;;;7.20;97.30;;;;;;5072385;28;20115;-80
2023/12/16 06:50:25;;;;;;;37.42;8.57;;;7.20;97.50;;;;;;5055055;28;20461;-78
2023/12/16 06:52:50;;;;;;;38.80;9.40;;;7.20;97.70;;;;;;5055261;28;20131;-80
2023/12/16 06:55:17;;;;;;;31.95;8.93;;;7.30;97.90;;;;;;5043904;28;20123;-79
2023/12/16 06:57:43;;;;;;;37.08;9.02;;;7.20;97.80;;;;;;5035153;28;20482;-81
2023/12/16 07:00:10;;;;;;;46.85;9.43;;;7.30;97.70;;;;;;5054379;28;20045;-82
2023/12/16 07:02:37;;;;;;;38.30;9.45;;;7.40;97.50;;;;;;5055116;28;20076;-81
2023/12/16 07:05:03;;;;;;;37.58;8.63;;;7.30;97.70;;;;;;5038897;28;20072;-81
2023/12/16 07:07:29;;;;;;;36.60;9.38;;;7.30;97.80;;;;;;5055119;28;20123;-80
2023/12/16 07:09:54;;;;;;;31.33;9.48;;;7.30;97.80;;;;;;5055102;28;20087;-79
2023/12/16 07:12:20;;;;;;;38.08;10.27;;;7.30;97.70;;;;;;5071696;28;20044;-81
2023/12/16 07:14:46;;;;;;;38.50;9.90;;;7.30;97.70;;;;;;5072739;28;20143;-81
2023/12/16 07:17:11;;;;;;;45.22;10.30;;;7.20;97.60;;;;;;5058453;28;20040;-79
2023/12/16 07:19:37;;;;;;;34.28;9.65;;;7.20;97.60;;;;;;5092195;28;20036;-81
2023/12/16 07:22:03;;;;;;;38.88;10.20;;;7.20;97.70;;;;;;5074083;28;20492;-81
2023/12/16 07:24:28;;;;;;;41.60;10.55;;;7.10;97.80;;;;;;5058304;28;20036;-79
2023/12/16 07:26:54;;;;;;;36.88;9.50;;;7.10;97.80;;;;;;5091773;28;20036;-81
2023/12/16 07:29:20;;;;;;;32.63;9.55;;;7.10;97.80;;;;;;5075048;28;20036;-84
2023/12/16 07:31:50;;;;;;;37.15;10.45;;;7.20;97.70;;;;;;5076256;28;20036;-80
2023/12/16 07:34:16;;;;;;;41.17;10.05;;;7.20;97.90;;;;;;5054811;28;20048;-82
2023/12/16 07:36:42;;;;;;;37.78;9.60;;;7.20;97.80;;;;;;5071722;28;20475;-81
2023/12/16 07:39:11;;;;;;;32.72;8.93;;;7.20;97.80;;;;;;5038230;28;20052;-81
2023/12/16 07:41:36;;;;;;;40.72;10.63;;;7.30;98.00;;;;;;5038354;28;20132;-81
2023/12/16 07:44:02;;;;;;;34.33;8.95;;;7.30;98.00;;;;;;5038192;28;20144;-81
2023/12/16 07:46:28;;;;;;;35.45;9.48;;;7.30;97.90;;;;;;5054540;28;20275;-81
2023/12/16 07:48:54;;;;;;;37.88;9.65;;;7.30;97.90;;;;;;5033658;28;20045;-83
2023/12/16 07:51:19;;;;;;;41.10;10.00;;;7.30;98.20;;;;;;5034287;28;20052;-81
2023/12/16 07:53:48;;;;;;;45.00;9.02;;;7.30;98.10;;;;;;5034468;28;20041;-82
2023/12/16 07:56:16;;;;;;;37.50;10.52;;;7.30;98.20;;;;;;5034679;28;20501;-83
2023/12/16 07:58:42;;;;;;;41.60;9.50;;;7.40;98.00;;;;;;5033558;28;20320;-83
2023/12/16 08:01:15;;;;;;;46.75;9.02;;;7.50;98.00;;;;;;5053035;28;20036;-80
2023/12/16 08:03:41;;;;;;;37.83;9.00;;;7.50;97.90;;;;;;5057298;28;20120;-81
2023/12/16 08:06:10;;;;;;;39.08;8.77;;;7.50;98.10;;;;;;5058344;28;20080;-80
2023/12/16 08:08:40;;;;;;;45.05;9.43;;;7.50;98.10;;;;;;5058589;28;20044;-82
2023/12/16 08:11:06;;;;;;;39.22;8.27;;;7.50;98.20;;;;;;5058250;28;20052;-81
2023/12/16 08:13:33;;;;;;;42.33;9.57;;;7.50;98.20;;;;;;5041545;28;20493;-82
2023/12/16 08:15:59;;;;;;;40.83;8.60;;;7.50;98.30;;;;;;5041164;28;20041;-81
2023/12/16 08:18:26;;;;;;;36.85;9.18;;;7.50;98.10;;;;;;5054858;28;20548;-84
2023/12/16 08:20:52;;;;;;;35.65;8.93;;;7.40;98.10;;;;;;5054698;28;20044;-83
2023/12/16 08:23:18;;;;;;;48.72;10.15;;;7.50;98.10;;;;;;5088308;28;20052;-80
2023/12/16 08:25:44;;;;;;;37.50;9.25;;;7.40;98.10;;;;;;5040882;28;20025;-79
2023/12/16 08:28:10;;;;;;;38.22;9.45;;;7.40;98.20;;;;;;5057154;28;20041;-83
2023/12/16 08:30:35;;;;;;;32.67;9.77;;;7.40;98.10;;;;;;5057960;28;20032;-81
2023/12/16 08:33:01;;;;;;;36.08;9.95;;;7.40;98.20;;;;;;5057894;28;20044;-84
2023/12/16 08:35:27;;;;;;;33.47;8.10;;;7.40;98.30;;;;;;5057911;28;20040;-80
2023/12/16 08:37:55;;;;;;;36.90;9.40;;;7.40;98.10;;;;;;5074823;28;20102;-81
2023/12/16 08:40:21;;;;;;;38.50;9.25;;;7.40;98.30;;;;;;5074459;28;20080;-83
2023/12/16 08:42:47;;;;;;;35.95;8.32;;;7.50;98.30;;;;;;5072848;28;20080;-85
2023/12/16 08:45:14;;;;;;;33.08;9.15;;;7.50;98.70;;;;;;5074090;28;20573;-82
2023/12/16 08:47:40;;;;;;;42.55;9.55;;;7.60;98.50;;;;;;5073790;28;20039;-82
2023/12/16 08:50:07;;;;;;;35.60;8.35;;;7.60;98.40;;;;;;5041321;28;20455;-82
2023/12/16 08:52:34;;;;;;;42.17;9.63;;;7.60;98.60;;;;;;5057722;28;20040;-83
2023/12/16 08:55:00;;;;;;;37.47;8.55;;;7.70;98.80;;;;;;5074272;28;20040;-84
2023/12/16 08:57:30;;;;;;;40.35;10.23;;;7.80;98.60;;;;;;5074203;28;20131;-83
2023/12/16 08:59:55;;;;;;;33.70;8.73;;;7.80;98.60;;;;;;5071653;28;20032;-80
2023/12/16 09:02:22;;;;;;;44.40;9.70;;;7.80;98.60;;;;;;5070620;28;20509;-82
2023/12/16 09:04:48;;;;;;;41.03;9.32;;;7.80;98.50;;;;;;5037522;28;20091;-82
2023/12/16 09:07:13;;;;;;;38.20;7.88;;;7.80;98.60;;;;;;5037516;28;20033;-83
2023/12/16 09:09:39;;;;;;;37.03;8.23;;;7.90;98.40;;;;;;5021225;28;20037;-81
2023/12/16 09:12:06;;;;;;;44.50;9.23;;;7.90;98.70;;;;;;5037246;28;20044;-82
2023/12/16 09:14:33;;;;;;;33.58;8.05;;;7.80;98.50;;;;;;5070241;28;20041;-81
2023/12/16 09:16:59;;;;;;;49.78;11.77;;;7.90;98.40;;;;;;5053772;28;20045;-83
2023/12/16 09:19:24;;;;;;;41.85;9.95;;;7.90;98.40;;;;;;5053622;28;20515;-81
2023/12/16 09:21:50;;;;;;;42.50;10.45;;;7.90;98.60;;;;;;5040833;28;20080;-81
2023/12/16 09:24:17;;;;;;;40.42;9.98;;;7.90;98.40;;;;;;5041467;28;20381;-82
2023/12/16 09:26:43;;;;;;;41.13;9.52;;;7.90;98.60;;;;;;5058029;28;20036;-81
2023/12/16 09:29:11;;;;;;;39.05;8.88;;;7.90;98.60;;;;;;5057563;28;20400;-82
2023/12/16 09:31:37;;;;;;;41.45;9.60;;;7.90;98.60;;;;;;5057375;28;20051;-82
2023/12/16 09:34:03;;;;;;;38.30;9.13;;;8.00;99.00;;;;;;5074328;28;20040;-81
2023/12/16 09:36:29;;;;;;;44.67;11.48;;;8.00;98.50;;;;;;5074094;28;20032;-82
2023/12/16 09:38:56;;;;;;;39.05;10.70;;;8.00;98.50;;;;;;5074033;28;20043;-82
2023/12/16 09:41:24;;;;;;;32.25;9.52;;;8.10;98.50;;;;;;5040303;28;20045;-82
2023/12/16 09:43:55;;;;;;;37.97;10.65;;;8.10;98.50;;;;;;5057220;28;20106;-84
2023/12/16 09:46:25;;;;;;;36.10;10.95;;;8.10;98.60;;;;;;5057987;28;20058;-82
2023/12/16 09:48:51;;;;;;;43.78;13.70;;;8.10;98.40;;;;;;5068824;28;20040;-82
2023/12/16 09:51:16;;;;;;;39.78;12.82;;;8.20;98.50;;;;;;5057007;28;20039;-82
2023/12/16 09:53:43;;;;;;;43.33;13.63;;;8.30;98.60;;;;;;5107768;28;20032;-81
2023/12/16 09:56:12;;;;;;;37.75;11.95;;;8.30;98.70;;;;;;5040435;28;20105;-81
2023/12/16 09:58:43;;;;;;;51.22;15.63;;;8.30;98.50;;;;;;5057032;28;20047;-81
2023/12/16 10:01:13;;;;;;;41.15;13.00;;;8.40;98.50;;;;;;5048687;28;20029;-82
2023/12/16 10:03:40;;;;;;;40.75;13.10;;;8.50;98.50;;;;;;5020785;28;20389;-82
2023/12/16 10:06:08;;;;;;;33.22;11.02;;;8.50;98.50;;;;;;5053697;28;20397;-83
2023/12/16 10:08:38;;;;;;;48.08;14.00;;;8.50;98.70;;;;;;5036843;28;20040;-83
2023/12/16 10:11:05;;;;;;;47.22;16.52;;;8.50;98.80;;;;;;5053307;28;20611;-82
2023/12/16 10:13:32;;;;;;;34.47;14.13;;;8.50;98.70;;;;;;5053917;28;20045;-82
2023/12/16 10:15:59;;;;;;;38.08;13.23;;;8.50;98.60;;;;;;5036900;28;20041;-82
2023/12/16 10:18:28;;;;;;;40.50;12.43;;;8.50;98.60;;;;;;5052838;28;20040;-83
2023/12/16 10:20:57;;;;;;;37.45;12.95;;;8.50;98.80;;;;;;5056734;28;20047;-82
2023/12/16 10:23:23;;;;;;;36.75;13.27;;;8.50;98.80;;;;;;5072995;28;20044;-81
2023/12/16 10:25:50;;;;;;;37.83;14.07;;;8.50;98.80;;;;;;5072235;28;20047;-82
2023/12/16 10:28:16;;;;;;;33.22;13.32;;;8.40;98.90;;;;;;5056896;28;20039;-82
2023/12/16 10:30:42;;;;;;;38.13;13.77;;;8.40;99.00;;;;;;5073170;28;20388;-83
2023/12/16 10:33:09;;;;;;;41.30;15.15;;;8.40;98.90;;;;;;5072500;28;20043;-81
2023/12/16 10:35:36;;;;;;;29.63;13.18;;;8.40;98.90;;;;;;5106780;28;20040;-83
2023/12/16 10:38:02;;;;;;;24.27;11.27;;;8.40;99.00;;;;;;5056657;28;20515;-80
2023/12/16 10:40:28;;;;;;;35.55;13.25;;;8.40;99.00;;;;;;5072702;28;20076;-86
2023/12/16 10:42:54;;;;;;;41.72;14.20;;;8.50;99.00;;;;;;5072599;28;20049;-82
2023/12/16 10:45:20;;;;;;;34.78;13.52;;;8.40;99.10;;;;;;5056050;28;20552;-83
2023/12/16 10:47:49;;;;;;;39.20;14.02;;;8.40;99.10;;;;;;5056290;28;20047;-81
2023/12/16 10:50:15;;;;;;;32.13;13.35;;;8.50;99.10;;;;;;5060017;28;20033;-82
2023/12/16 10:52:56;;;;;;;33.58;13.82;;;8.40;99.50;;;;;;5069797;28;20131;-84
2023/12/16 10:55:42;;;;;;;34.20;13.43;;;8.50;99.20;;;;;;5052535;28;20044;-85
2023/12/16 10:58:20;;;;;;;29.48;12.65;;;8.50;99.30;;;;;;5034250;28;20044;-83
2023/12/16 11:00:50;;;;;;;34.65;13.77;;;8.50;99.40;;;;;;5050829;28;20044;-80
2023/12/16 11:03:32;;;;;;;28.52;12.75;;;8.50;99.40;;;;;;5064077;28;20053;-82
2023/12/16 11:06:07;;;;;;;37.08;13.48;;;8.50;99.20;;;;;;5053869;28;20040;-81
2023/12/16 11:08:35;;;;;;;39.20;14.13;;;8.50;99.20;;;;;;5054348;28;20041;-81
2023/12/16 11:11:02;;;;;;;36.22;13.45;;;8.60;99.30;;;;;;5055129;28;20032;-82
2023/12/16 11:13:32;;;;;;;35.28;14.55;;;8.50;99.40;;;;;;5038688;28;20028;-82
2023/12/16 11:16:13;;;;;;;32.67;12.82;;;8.50;99.50;;;;;;5038510;28;20081;-82
2023/12/16 11:18:42;;;;;;;24.58;10.40;;;8.50;99.40;;;;;;5055145;28;20036;-84
2023/12/16 11:21:12;;;;;;;30.60;12.88;;;8.60;99.40;;;;;;5054586;28;20090;-80
2023/12/16 11:23:48;;;;;;;33.88;12.15;;;8.60;99.30;;;;;;5085222;28;20098;-81
2023/12/16 11:26:16;;;;;;;27.88;11.43;;;8.60;99.40;;;;;;5068068;28;20461;-80
2023/12/16 11:28:41;;;;;;;28.15;9.70;;;8.60;99.40;;;;;;5034984;28;20109;-80
2023/12/16 11:31:10;;;;;;;26.27;10.63;;;8.70;99.30;;;;;;5051539;28;20135;-82
2023/12/16 11:33:43;;;;;;;27.48;10.23;;;8.70;99.30;;;;;;5034981;28;20504;-82
2023/12/16 11:36:09;;;;;;;22.77;8.93;;;8.70;99.30;;;;;;5072890;28;20044;-81
2023/12/16 11:38:58;;;;;;;20.92;10.93;;;8.60;99.40;;;;;;5059239;28;20033;-83
2023/12/16 11:41:35;;;;;;;24.92;10.60;;;8.60;99.40;;;;;;5061511;28;20052;-82
2023/12/16 11:44:01;;;;;;;26.42;10.35;;;8.60;99.40;;;;;;5059208;28;20404;-83
2023/12/16 11:46:44;;;;;;;22.42;9.23;;;8.70;99.40;;;;;;5042248;28;20048;-84
2023/12/16 11:49:14;;;;;;;20.33;9.27;;;8.70;99.30;;;;;;5075868;28;20048;-82
2023/12/16 11:51:40;;;;;;;27.15;14.93;;;8.70;99.50;;;;;;5058003;28;20041;-84
2023/12/16 11:54:08;;;;;;;28.60;13.88;;;8.70;99.30;;;;;;5058737;28;20045;-85
2023/12/16 11:56:34;;;;;;;39.70;13.82;;;8.80;99.40;;;;;;5042213;28;20125;-83
2023/12/16 11:59:04;;;;;;;24.08;12.00;;;8.70;99.40;;;;;;5075600;28;20045;-80
2023/12/16 12:01:31;;;;;;;22.25;11.63;;;8.70;99.40;;;;;;5076052;28;20044;-80
2023/12/16 12:03:58;;;;;;;21.88;11.85;;;8.80;99.40;;;;;;5036557;28;20049;-80
2023/12/16 12:06:26;;;;;;;22.35;10.50;;;8.80;99.40;;;;;;5038505;28;20090;-82
2023/12/16 12:08:52;;;;;;;22.40;9.35;;;8.80;99.40;;;;;;5038936;28;20032;-83
2023/12/16 12:11:20;;;;;;;23.33;9.77;;;8.80;99.40;;;;;;5055259;28;20095;-83
2023/12/16 12:13:52;;;;;;;23.92;10.00;;;8.80;99.40;;;;;;5072376;28;20037;-82
2023/12/16 12:16:19;;;;;;;21.80;9.68;;;8.90;99.40;;;;;;5038354;28;20124;-82
2023/12/16 12:18:44;;;;;;;25.33;9.75;;;8.80;99.30;;;;;;5039052;28;20076;-83
2023/12/16 12:21:11;;;;;;;22.67;9.52;;;8.90;99.30;;;;;;5058410;28;20068;-84
2023/12/16 12:23:38;;;;;;;21.50;9.60;;;8.90;99.20;;;;;;5058311;28;20036;-83
2023/12/16 12:26:04;;;;;;;24.48;10.60;;;8.90;99.30;;;;;;5058435;28;20040;-83
2023/12/16 12:28:29;;;;;;;21.58;10.75;;;8.90;99.30;;;;;;5058096;28;20465;-82
2023/12/16 12:31:03;;;;;;;21.17;9.52;;;8.90;99.30;;;;;;5075034;28;20035;-83
2023/12/16 12:33:31;;;;;;;17.45;7.05;;;8.90;99.20;;;;;;5041405;28;20066;-84
2023/12/16 12:35:56;;;;;;;14.75;8.32;;;9.00;99.30;;;;;;5070030;28;20045;-81
2023/12/16 12:38:22;;;;;;;16.55;8.20;;;9.00;99.10;;;;;;5057894;28;20039;-82
2023/12/16 12:40:59;;;;;;;18.38;9.88;;;9.00;99.10;;;;;;5041532;28;20036;-84
2023/12/16 12:43:34;;;;;;;16.95;8.35;;;9.00;99.10;;;;;;5057271;28;20556;-84